createdAt,value
2022-08-03T00:00:04.577Z,21
2022-08-03T00:10:04.472Z,21
2022-08-03T00:20:04.564Z,21
2022-08-03T00:30:04.453Z,21
2022-08-03T00:40:04.560Z,20.5
2022-08-03T00:50:04.660Z,21
2022-08-03T01:00:04.563Z,20.5
2022-08-03T01:10:04.653Z,20.5
2022-08-03T01:20:04.572Z,20.5
2022-08-03T01:30:04.679Z,20.5
2022-08-03T01:40:04.551Z,20.5
2022-08-03T01:50:04.654Z,20.5
2022-08-03T02:00:04.549Z,20.5
2022-08-03T02:10:04.635Z,20.5
2022-08-03T02:20:04.738Z,20.5
2022-08-03T02:30:04.636Z,20.5
2022-08-03T02:40:04.741Z,20
2022-08-03T02:50:04.717Z,19.5
2022-08-03T03:00:04.725Z,19.5
2022-08-03T03:10:04.646Z,19.5
2022-08-03T03:20:04.766Z,19.5
2022-08-03T03:30:04.815Z,20
2022-08-03T03:40:04.712Z,19.5
2022-08-03T03:50:04.822Z,20
2022-08-03T04:00:04.716Z,20
2022-08-03T04:10:14.302Z,20
2022-08-03T04:20:04.717Z,19.5
2022-08-03T04:30:04.815Z,19.5
2022-08-03T04:40:04.740Z,19.5
2022-08-03T04:50:07.132Z,19.5
2022-08-03T05:00:04.905Z,19.5
2022-08-03T05:10:04.807Z,19.5
2022-08-03T05:20:04.906Z,20
2022-08-03T05:30:26.533Z,20
2022-08-03T05:40:04.911Z,20
2022-08-03T05:50:04.806Z,20
2022-08-03T06:00:04.913Z,20
2022-08-03T06:10:34.848Z,19.5
2022-08-03T06:20:04.890Z,20
2022-08-03T06:30:05.027Z,20.5
2022-08-03T06:40:04.905Z,22.5
2022-08-03T06:50:05.598Z,23.5
2022-08-03T07:00:06.720Z,28
2022-08-03T07:10:04.986Z,31
2022-08-03T07:20:04.906Z,31.5
2022-08-03T07:30:05.007Z,33.5
2022-08-03T07:40:04.909Z,33
2022-08-03T07:50:05.037Z,35
2022-08-03T08:00:04.925Z,33.5
2022-08-03T08:10:05.015Z,31.5
2022-08-03T08:20:05.122Z,31
2022-08-03T08:30:10.977Z,35.5
2022-08-03T08:40:05.128Z,39
2022-08-03T08:50:09.950Z,39
2022-08-03T09:00:05.864Z,39
2022-08-03T09:10:10.703Z,40
2022-08-03T09:20:05.588Z,37.5
2022-08-03T09:30:05.037Z,31
2022-08-03T09:40:05.130Z,31.5
2022-08-03T09:50:05.226Z,28.5
2022-08-03T10:00:08.269Z,30
2022-08-03T10:10:28.719Z,33.5
2022-08-03T10:20:05.116Z,29.5
2022-08-03T10:30:05.217Z,24.5
2022-08-03T10:40:05.131Z,24.5
2022-08-03T10:50:05.237Z,24
2022-08-03T11:00:05.131Z,23.5
2022-08-03T11:10:08.957Z,23.5
2022-08-03T11:20:05.295Z,23.5
2022-08-03T11:30:05.187Z,23.5
2022-08-03T11:40:05.302Z,23
2022-08-03T11:50:05.197Z,22.5
2022-08-03T12:00:05.287Z,23
2022-08-03T12:10:05.193Z,23
2022-08-03T12:20:05.291Z,23
2022-08-03T12:30:05.173Z,24
2022-08-03T12:40:09.307Z,23
2022-08-03T12:50:05.413Z,23
2022-08-03T13:00:05.367Z,22.5
2022-08-03T13:10:08.108Z,22.5
2022-08-03T13:20:05.271Z,22.5
2022-08-03T13:30:05.366Z,23.5
2022-08-03T13:40:05.551Z,23
2022-08-03T13:50:05.412Z,22.5
2022-08-03T14:00:05.476Z,23.5
2022-08-03T14:10:05.365Z,24
2022-08-03T14:20:09.480Z,24
2022-08-03T14:30:05.355Z,24
2022-08-03T14:40:05.710Z,24
2022-08-03T14:50:29.965Z,24
2022-08-03T15:00:05.449Z,24
2022-08-03T15:10:05.354Z,24
2022-08-03T15:20:24.344Z,24
2022-08-03T15:30:09.739Z,24
2022-08-03T15:40:05.444Z,23.5
2022-08-03T15:50:09.573Z,24
2022-08-03T16:00:05.436Z,24.5
2022-08-03T16:10:05.535Z,24
2022-08-03T16:20:09.235Z,23
2022-08-03T16:30:05.540Z,22.5
2022-08-03T16:40:05.450Z,23
2022-08-03T16:50:11.733Z,23.5
2022-08-03T17:00:05.613Z,23
2022-08-03T17:10:08.932Z,22.5
2022-08-03T17:20:09.506Z,22.5
2022-08-03T17:30:05.518Z,23.5
2022-08-03T17:40:05.684Z,24
2022-08-03T17:50:09.473Z,24
2022-08-03T18:00:05.607Z,23
2022-08-03T18:10:11.124Z,22.5
2022-08-03T18:20:10.758Z,22
2022-08-03T18:30:05.815Z,22
2022-08-03T18:40:07.359Z,22
2022-08-03T18:50:06.295Z,21.5
2022-08-03T19:00:06.943Z,21.5
2022-08-03T19:10:06.658Z,21.5
2022-08-03T19:20:05.723Z,21.5
2022-08-03T19:30:09.966Z,21.5
2022-08-03T19:40:05.785Z,21.5
2022-08-03T19:50:10.557Z,21.5
2022-08-03T20:00:05.815Z,20.5
2022-08-03T20:10:05.705Z,20.5
2022-08-03T20:20:05.814Z,20
2022-08-03T20:30:07.071Z,19.5
2022-08-03T20:40:05.785Z,19.5
2022-08-03T20:50:07.695Z,19.5
2022-08-03T21:00:05.767Z,19.5
2022-08-03T21:10:05.861Z,19.5
2022-08-03T21:20:05.770Z,19.5
2022-08-03T21:30:05.927Z,19
2022-08-03T21:40:05.809Z,19
2022-08-03T21:50:09.396Z,18.5
2022-08-03T22:00:05.804Z,18.5
2022-08-03T22:10:05.896Z,18.5
2022-08-03T22:20:05.788Z,18.5
2022-08-03T22:30:05.875Z,18.5
2022-08-03T22:40:05.994Z,18.5
2022-08-03T22:50:31.039Z,18.5
2022-08-03T23:00:06.120Z,18.5
2022-08-03T23:10:05.899Z,19
2022-08-03T23:20:06.254Z,19
2022-08-03T23:30:05.862Z,18.5
2022-08-03T23:40:05.968Z,18.5
2022-08-03T23:50:05.868Z,19
